sensor_id;sensor_type;location;lat;lon;timestamp;P1;durP1;ratioP1;P2;durP2;ratioP2
45694;SDS011;31408;45.468;9.124;2023-11-21T00:02:01;42.85;;;25.67;;
45694;SDS011;31408;45.468;9.124;2023-11-21T00:04:26;46.10;;;27.83;;
45694;SDS011;31408;45.468;9.124;2023-11-21T00:06:53;50.58;;;28.88;;
45694;SDS011;31408;45.468;9.124;2023-11-21T00:09:18;45.53;;;28.05;;
45694;SDS011;31408;45.468;9.124;2023-11-21T00:11:45;42.97;;;26.60;;
45694;SDS011;31408;45.468;9.124;2023-11-21T00:14:13;46.60;;;26.75;;
45694;SDS011;31408;45.468;9.124;2023-11-21T00:16:40;50.97;;;28.63;;
45694;SDS011;31408;45.468;9.124;2023-11-21T00:19:05;42.40;;;26.42;;
45694;SDS011;31408;45.468;9.124;2023-11-21T00:21:31;43.08;;;27.13;;
45694;SDS011;31408;45.468;9.124;2023-11-21T00:23:56;44.60;;;26.75;;
45694;SDS011;31408;45.468;9.124;2023-11-21T00:26:21;43.38;;;27.23;;
45694;SDS011;31408;45.468;9.124;2023-11-21T00:28:56;40.85;;;26.02;;
45694;SDS011;31408;45.468;9.124;2023-11-21T00:31:21;49.53;;;28.73;;
45694;SDS011;31408;45.468;9.124;2023-11-21T00:33:46;42.67;;;25.67;;
45694;SDS011;31408;45.468;9.124;2023-11-21T00:36:12;48.42;;;28.40;;
45694;SDS011;31408;45.468;9.124;2023-11-21T00:38:40;44.40;;;28.25;;
45694;SDS011;31408;45.468;9.124;2023-11-21T00:41:05;43.47;;;27.40;;
45694;SDS011;31408;45.468;9.124;2023-11-21T00:43:31;43.83;;;26.27;;
45694;SDS011;31408;45.468;9.124;2023-11-21T00:45:58;46.38;;;25.75;;
45694;SDS011;31408;45.468;9.124;2023-11-21T00:48:23;43.88;;;26.77;;
45694;SDS011;31408;45.468;9.124;2023-11-21T00:50:49;44.95;;;26.33;;
45694;SDS011;31408;45.468;9.124;2023-11-21T00:53:15;48.25;;;27.00;;
45694;SDS011;31408;45.468;9.124;2023-11-21T00:55:40;46.72;;;27.67;;
45694;SDS011;31408;45.468;9.124;2023-11-21T00:58:06;40.35;;;25.20;;
45694;SDS011;31408;45.468;9.124;2023-11-21T01:00:32;42.83;;;25.05;;
45694;SDS011;31408;45.468;9.124;2023-11-21T01:02:57;46.47;;;27.50;;
45694;SDS011;31408;45.468;9.124;2023-11-21T01:05:23;45.15;;;27.55;;
45694;SDS011;31408;45.468;9.124;2023-11-21T01:07:48;42.20;;;24.40;;
45694;SDS011;31408;45.468;9.124;2023-11-21T01:10:13;44.28;;;25.60;;
45694;SDS011;31408;45.468;9.124;2023-11-21T01:12:39;43.85;;;25.50;;
45694;SDS011;31408;45.468;9.124;2023-11-21T01:15:05;43.67;;;27.48;;
45694;SDS011;31408;45.468;9.124;2023-11-21T01:17:32;45.40;;;25.25;;
45694;SDS011;31408;45.468;9.124;2023-11-21T01:19:59;43.33;;;25.98;;
45694;SDS011;31408;45.468;9.124;2023-11-21T01:22:24;41.47;;;24.80;;
45694;SDS011;31408;45.468;9.124;2023-11-21T01:24:53;46.65;;;25.17;;
45694;SDS011;31408;45.468;9.124;2023-11-21T01:27:18;42.65;;;24.65;;
45694;SDS011;31408;45.468;9.124;2023-11-21T01:29:44;49.97;;;25.52;;
45694;SDS011;31408;45.468;9.124;2023-11-21T01:32:09;42.80;;;25.60;;
45694;SDS011;31408;45.468;9.124;2023-11-21T01:34:35;44.22;;;25.55;;
45694;SDS011;31408;45.468;9.124;2023-11-21T01:37:00;46.50;;;25.45;;
45694;SDS011;31408;45.468;9.124;2023-11-21T01:39:26;41.05;;;24.08;;
45694;SDS011;31408;45.468;9.124;2023-11-21T01:41:52;42.25;;;23.70;;
45694;SDS011;31408;45.468;9.124;2023-11-21T01:44:17;38.30;;;24.00;;
45694;SDS011;31408;45.468;9.124;2023-11-21T01:46:44;44.85;;;25.08;;
45694;SDS011;31408;45.468;9.124;2023-11-21T01:49:10;42.80;;;24.15;;
45694;SDS011;31408;45.468;9.124;2023-11-21T01:51:38;41.10;;;23.17;;
45694;SDS011;31408;45.468;9.124;2023-11-21T01:54:04;40.08;;;23.80;;
45694;SDS011;31408;45.468;9.124;2023-11-21T01:56:30;42.13;;;26.10;;
45694;SDS011;31408;45.468;9.124;2023-11-21T01:58:56;42.35;;;24.48;;
45694;SDS011;31408;45.468;9.124;2023-11-21T02:01:22;39.65;;;23.30;;
45694;SDS011;31408;45.468;9.124;2023-11-21T02:03:47;43.20;;;24.27;;
45694;SDS011;31408;45.468;9.124;2023-11-21T02:06:13;44.60;;;26.52;;
45694;SDS011;31408;45.468;9.124;2023-11-21T02:08:38;42.55;;;24.08;;
45694;SDS011;31408;45.468;9.124;2023-11-21T02:11:04;42.58;;;25.60;;
45694;SDS011;31408;45.468;9.124;2023-11-21T02:13:30;40.92;;;24.10;;
45694;SDS011;31408;45.468;9.124;2023-11-21T02:15:57;41.72;;;24.88;;
45694;SDS011;31408;45.468;9.124;2023-11-21T02:18:23;42.78;;;24.55;;
45694;SDS011;31408;45.468;9.124;2023-11-21T02:20:48;38.55;;;22.25;;
45694;SDS011;31408;45.468;9.124;2023-11-21T02:23:14;40.53;;;23.90;;
45694;SDS011;31408;45.468;9.124;2023-11-21T02:25:39;40.42;;;23.80;;
45694;SDS011;31408;45.468;9.124;2023-11-21T02:28:05;47.10;;;23.75;;
45694;SDS011;31408;45.468;9.124;2023-11-21T02:30:31;33.53;;;20.15;;
45694;SDS011;31408;45.468;9.124;2023-11-21T02:32:57;46.17;;;23.35;;
45694;SDS011;31408;45.468;9.124;2023-11-21T02:35:24;35.50;;;22.75;;
45694;SDS011;31408;45.468;9.124;2023-11-21T02:37:51;40.45;;;23.70;;
45694;SDS011;31408;45.468;9.124;2023-11-21T02:40:17;37.47;;;21.30;;
45694;SDS011;31408;45.468;9.124;2023-11-21T02:42:43;41.95;;;22.98;;
45694;SDS011;31408;45.468;9.124;2023-11-21T02:45:08;36.25;;;20.80;;
45694;SDS011;31408;45.468;9.124;2023-11-21T02:47:34;38.78;;;20.38;;
45694;SDS011;31408;45.468;9.124;2023-11-21T02:49:59;42.33;;;22.80;;
45694;SDS011;31408;45.468;9.124;2023-11-21T02:52:25;42.67;;;22.92;;
45694;SDS011;31408;45.468;9.124;2023-11-21T02:54:51;41.90;;;21.73;;
45694;SDS011;31408;45.468;9.124;2023-11-21T02:57:18;36.47;;;20.17;;
45694;SDS011;31408;45.468;9.124;2023-11-21T02:59:43;37.80;;;21.08;;
45694;SDS011;31408;45.468;9.124;2023-11-21T03:02:11;39.45;;;23.15;;
45694;SDS011;31408;45.468;9.124;2023-11-21T03:04:37;34.85;;;21.17;;
45694;SDS011;31408;45.468;9.124;2023-11-21T03:07:02;34.88;;;19.95;;
45694;SDS011;31408;45.468;9.124;2023-11-21T03:09:29;36.70;;;21.08;;
45694;SDS011;31408;45.468;9.124;2023-11-21T03:11:54;40.10;;;22.27;;
45694;SDS011;31408;45.468;9.124;2023-11-21T03:14:20;37.17;;;20.55;;
45694;SDS011;31408;45.468;9.124;2023-11-21T03:16:45;40.22;;;23.08;;
45694;SDS011;31408;45.468;9.124;2023-11-21T03:19:11;35.83;;;20.80;;
45694;SDS011;31408;45.468;9.124;2023-11-21T03:21:36;37.58;;;20.25;;
45694;SDS011;31408;45.468;9.124;2023-11-21T03:24:02;38.55;;;21.70;;
45694;SDS011;31408;45.468;9.124;2023-11-21T03:26:27;36.05;;;20.23;;
45694;SDS011;31408;45.468;9.124;2023-11-21T03:28:52;38.47;;;21.10;;
45694;SDS011;31408;45.468;9.124;2023-11-21T03:31:18;42.22;;;22.55;;
45694;SDS011;31408;45.468;9.124;2023-11-21T03:33:44;35.85;;;20.42;;
45694;SDS011;31408;45.468;9.124;2023-11-21T03:36:11;42.45;;;21.58;;
45694;SDS011;31408;45.468;9.124;2023-11-21T03:38:36;38.30;;;20.52;;
45694;SDS011;31408;45.468;9.124;2023-11-21T03:41:02;41.75;;;20.77;;
45694;SDS011;31408;45.468;9.124;2023-11-21T03:43:28;37.95;;;20.38;;
45694;SDS011;31408;45.468;9.124;2023-11-21T03:45:53;46.42;;;20.70;;
45694;SDS011;31408;45.468;9.124;2023-11-21T03:48:19;38.10;;;20.00;;
45694;SDS011;31408;45.468;9.124;2023-11-21T03:50:45;38.00;;;19.20;;
45694;SDS011;31408;45.468;9.124;2023-11-21T03:53:10;37.42;;;20.33;;
45694;SDS011;31408;45.468;9.124;2023-11-21T03:55:36;38.88;;;20.60;;
45694;SDS011;31408;45.468;9.124;2023-11-21T03:58:02;37.92;;;19.92;;
45694;SDS011;31408;45.468;9.124;2023-11-21T04:00:28;41.17;;;19.92;;
45694;SDS011;31408;45.468;9.124;2023-11-21T04:02:53;41.53;;;19.92;;
45694;SDS011;31408;45.468;9.124;2023-11-21T04:05:19;34.42;;;19.92;;
45694;SDS011;31408;45.468;9.124;2023-11-21T04:07:44;49.00;;;22.08;;
45694;SDS011;31408;45.468;9.124;2023-11-21T04:10:10;50.50;;;21.95;;
45694;SDS011;31408;45.468;9.124;2023-11-21T04:12:37;38.47;;;19.40;;
45694;SDS011;31408;45.468;9.124;2023-11-21T04:15:03;42.75;;;21.50;;
45694;SDS011;31408;45.468;9.124;2023-11-21T04:17:28;38.35;;;20.05;;
45694;SDS011;31408;45.468;9.124;2023-11-21T04:19:54;36.35;;;19.00;;
45694;SDS011;31408;45.468;9.124;2023-11-21T04:22:19;33.10;;;17.75;;
45694;SDS011;31408;45.468;9.124;2023-11-21T04:24:44;37.90;;;18.20;;
45694;SDS011;31408;45.468;9.124;2023-11-21T04:27:10;35.72;;;18.23;;
45694;SDS011;31408;45.468;9.124;2023-11-21T04:29:35;36.97;;;18.33;;
45694;SDS011;31408;45.468;9.124;2023-11-21T04:32:01;44.03;;;21.50;;
45694;SDS011;31408;45.468;9.124;2023-11-21T04:34:27;37.47;;;20.60;;
45694;SDS011;31408;45.468;9.124;2023-11-21T04:36:55;37.20;;;18.67;;
45694;SDS011;31408;45.468;9.124;2023-11-21T04:39:20;34.28;;;17.73;;
45694;SDS011;31408;45.468;9.124;2023-11-21T04:41:45;42.58;;;19.65;;
45694;SDS011;31408;45.468;9.124;2023-11-21T04:44:11;42.17;;;20.02;;
45694;SDS011;31408;45.468;9.124;2023-11-21T04:46:36;43.25;;;19.95;;
45694;SDS011;31408;45.468;9.124;2023-11-21T04:49:01;37.35;;;19.77;;
45694;SDS011;31408;45.468;9.124;2023-11-21T04:51:27;32.15;;;18.40;;
45694;SDS011;31408;45.468;9.124;2023-11-21T04:53:52;39.53;;;20.50;;
45694;SDS011;31408;45.468;9.124;2023-11-21T04:56:17;39.85;;;18.40;;
45694;SDS011;31408;45.468;9.124;2023-11-21T04:58:43;38.83;;;19.27;;
45694;SDS011;31408;45.468;9.124;2023-11-21T05:01:08;40.13;;;22.08;;
45694;SDS011;31408;45.468;9.124;2023-11-21T05:03:34;38.15;;;18.33;;
45694;SDS011;31408;45.468;9.124;2023-11-21T05:06:00;34.70;;;18.25;;
45694;SDS011;31408;45.468;9.124;2023-11-21T05:08:25;41.10;;;19.27;;
45694;SDS011;31408;45.468;9.124;2023-11-21T05:10:51;43.30;;;19.50;;
45694;SDS011;31408;45.468;9.124;2023-11-21T05:13:17;45.67;;;19.90;;
45694;SDS011;31408;45.468;9.124;2023-11-21T05:15:43;38.67;;;19.65;;
45694;SDS011;31408;45.468;9.124;2023-11-21T05:18:09;47.72;;;18.73;;
45694;SDS011;31408;45.468;9.124;2023-11-21T05:20:35;33.92;;;19.00;;
45694;SDS011;31408;45.468;9.124;2023-11-21T05:23:00;39.53;;;17.15;;
45694;SDS011;31408;45.468;9.124;2023-11-21T05:25:26;35.15;;;21.02;;
45694;SDS011;31408;45.468;9.124;2023-11-21T05:27:51;33.25;;;18.02;;
45694;SDS011;31408;45.468;9.124;2023-11-21T05:30:18;38.08;;;19.30;;
45694;SDS011;31408;45.468;9.124;2023-11-21T05:32:43;37.92;;;19.73;;
45694;SDS011;31408;45.468;9.124;2023-11-21T05:35:09;46.15;;;19.45;;
45694;SDS011;31408;45.468;9.124;2023-11-21T05:37:37;35.35;;;19.17;;
45694;SDS011;31408;45.468;9.124;2023-11-21T05:40:04;44.22;;;22.40;;
45694;SDS011;31408;45.468;9.124;2023-11-21T05:42:34;36.30;;;18.00;;
45694;SDS011;31408;45.468;9.124;2023-11-21T05:45:00;48.97;;;21.00;;
45694;SDS011;31408;45.468;9.124;2023-11-21T05:47:35;35.72;;;18.13;;
45694;SDS011;31408;45.468;9.124;2023-11-21T05:50:01;35.95;;;18.42;;
45694;SDS011;31408;45.468;9.124;2023-11-21T05:52:27;38.88;;;20.77;;
45694;SDS011;31408;45.468;9.124;2023-11-21T05:54:52;35.08;;;19.95;;
45694;SDS011;31408;45.468;9.124;2023-11-21T05:57:17;44.20;;;20.70;;
45694;SDS011;31408;45.468;9.124;2023-11-21T05:59:43;41.92;;;20.95;;
45694;SDS011;31408;45.468;9.124;2023-11-21T06:02:08;39.55;;;20.45;;
45694;SDS011;31408;45.468;9.124;2023-11-21T06:04:34;35.70;;;20.15;;
45694;SDS011;31408;45.468;9.124;2023-11-21T06:06:59;37.28;;;20.48;;
45694;SDS011;31408;45.468;9.124;2023-11-21T06:09:25;39.42;;;20.05;;
45694;SDS011;31408;45.468;9.124;2023-11-21T06:11:51;39.92;;;20.73;;
45694;SDS011;31408;45.468;9.124;2023-11-21T06:14:16;41.25;;;20.30;;
45694;SDS011;31408;45.468;9.124;2023-11-21T06:16:43;42.05;;;21.05;;
45694;SDS011;31408;45.468;9.124;2023-11-21T06:19:10;52.72;;;22.45;;
45694;SDS011;31408;45.468;9.124;2023-11-21T06:21:36;37.78;;;19.40;;
45694;SDS011;31408;45.468;9.124;2023-11-21T06:24:01;45.20;;;19.48;;
45694;SDS011;31408;45.468;9.124;2023-11-21T06:26:26;41.45;;;21.55;;
45694;SDS011;31408;45.468;9.124;2023-11-21T06:28:52;42.50;;;21.88;;
45694;SDS011;31408;45.468;9.124;2023-11-21T06:31:18;45.05;;;23.20;;
45694;SDS011;31408;45.468;9.124;2023-11-21T06:33:43;38.28;;;22.70;;
45694;SDS011;31408;45.468;9.124;2023-11-21T06:36:08;44.78;;;22.17;;
45694;SDS011;31408;45.468;9.124;2023-11-21T06:38:36;38.42;;;20.08;;
45694;SDS011;31408;45.468;9.124;2023-11-21T06:41:02;40.40;;;21.20;;
45694;SDS011;31408;45.468;9.124;2023-11-21T06:43:27;44.05;;;20.38;;
45694;SDS011;31408;45.468;9.124;2023-11-21T06:45:52;38.38;;;21.17;;
45694;SDS011;31408;45.468;9.124;2023-11-21T06:48:18;41.78;;;20.65;;
45694;SDS011;31408;45.468;9.124;2023-11-21T06:50:43;42.97;;;20.77;;
45694;SDS011;31408;45.468;9.124;2023-11-21T06:53:09;36.38;;;19.75;;
45694;SDS011;31408;45.468;9.124;2023-11-21T06:55:35;47.30;;;20.95;;
45694;SDS011;31408;45.468;9.124;2023-11-21T06:58:01;37.58;;;19.45;;
45694;SDS011;31408;45.468;9.124;2023-11-21T07:00:26;41.33;;;21.83;;
45694;SDS011;31408;45.468;9.124;2023-11-21T07:02:55;44.28;;;20.77;;
45694;SDS011;31408;45.468;9.124;2023-11-21T07:05:20;43.78;;;22.45;;
45694;SDS011;31408;45.468;9.124;2023-11-21T07:07:46;40.80;;;19.95;;
45694;SDS011;31408;45.468;9.124;2023-11-21T07:10:13;41.25;;;22.33;;
45694;SDS011;31408;45.468;9.124;2023-11-21T07:12:38;43.25;;;20.45;;
45694;SDS011;31408;45.468;9.124;2023-11-21T07:15:05;34.35;;;18.70;;
45694;SDS011;31408;45.468;9.124;2023-11-21T07:17:34;38.08;;;20.10;;
45694;SDS011;31408;45.468;9.124;2023-11-21T07:20:00;42.83;;;22.45;;
45694;SDS011;31408;45.468;9.124;2023-11-21T07:22:25;36.25;;;21.80;;
45694;SDS011;31408;45.468;9.124;2023-11-21T07:24:51;45.13;;;22.92;;
45694;SDS011;31408;45.468;9.124;2023-11-21T07:27:17;44.03;;;22.20;;
45694;SDS011;31408;45.468;9.124;2023-11-21T07:29:42;43.08;;;21.05;;
45694;SDS011;31408;45.468;9.124;2023-11-21T07:32:07;41.97;;;21.23;;
45694;SDS011;31408;45.468;9.124;2023-11-21T07:34:34;42.47;;;22.15;;
45694;SDS011;31408;45.468;9.124;2023-11-21T07:36:59;38.80;;;21.02;;
45694;SDS011;31408;45.468;9.124;2023-11-21T07:39:25;40.53;;;21.83;;
45694;SDS011;31408;45.468;9.124;2023-11-21T07:41:50;38.38;;;20.80;;
45694;SDS011;31408;45.468;9.124;2023-11-21T07:44:19;39.42;;;22.20;;
45694;SDS011;31408;45.468;9.124;2023-11-21T07:46:46;46.10;;;23.10;;
45694;SDS011;31408;45.468;9.124;2023-11-21T07:49:11;38.78;;;20.00;;
45694;SDS011;31408;45.468;9.124;2023-11-21T07:51:40;41.47;;;23.23;;
45694;SDS011;31408;45.468;9.124;2023-11-21T07:54:05;47.35;;;22.80;;
45694;SDS011;31408;45.468;9.124;2023-11-21T07:56:30;42.67;;;22.67;;
45694;SDS011;31408;45.468;9.124;2023-11-21T07:58:56;35.85;;;21.52;;
45694;SDS011;31408;45.468;9.124;2023-11-21T08:01:21;50.45;;;23.20;;
45694;SDS011;31408;45.468;9.124;2023-11-21T08:03:46;39.58;;;20.73;;
45694;SDS011;31408;45.468;9.124;2023-11-21T08:06:16;42.47;;;21.55;;
45694;SDS011;31408;45.468;9.124;2023-11-21T08:08:41;36.55;;;20.17;;
45694;SDS011;31408;45.468;9.124;2023-11-21T08:11:08;38.95;;;23.33;;
45694;SDS011;31408;45.468;9.124;2023-11-21T08:13:35;49.10;;;25.35;;
45694;SDS011;31408;45.468;9.124;2023-11-21T08:16:01;43.50;;;23.27;;
45694;SDS011;31408;45.468;9.124;2023-11-21T08:18:30;47.85;;;22.23;;
45694;SDS011;31408;45.468;9.124;2023-11-21T08:20:55;45.17;;;23.80;;
45694;SDS011;31408;45.468;9.124;2023-11-21T08:23:21;45.72;;;24.63;;
45694;SDS011;31408;45.468;9.124;2023-11-21T08:25:50;40.25;;;23.13;;
45694;SDS011;31408;45.468;9.124;2023-11-21T08:28:16;40.38;;;21.60;;
45694;SDS011;31408;45.468;9.124;2023-11-21T08:30:41;47.33;;;24.55;;
45694;SDS011;31408;45.468;9.124;2023-11-21T08:33:06;48.47;;;22.65;;
45694;SDS011;31408;45.468;9.124;2023-11-21T08:35:33;42.17;;;23.27;;
45694;SDS011;31408;45.468;9.124;2023-11-21T08:37:59;40.03;;;23.70;;
45694;SDS011;31408;45.468;9.124;2023-11-21T08:40:24;40.80;;;23.70;;
45694;SDS011;31408;45.468;9.124;2023-11-21T08:42:50;45.92;;;24.35;;
45694;SDS011;31408;45.468;9.124;2023-11-21T08:45:17;40.38;;;21.58;;
45694;SDS011;31408;45.468;9.124;2023-11-21T08:47:43;46.65;;;26.13;;
45694;SDS011;31408;45.468;9.124;2023-11-21T08:50:11;39.38;;;21.83;;
45694;SDS011;31408;45.468;9.124;2023-11-21T08:52:40;47.05;;;23.80;;
45694;SDS011;31408;45.468;9.124;2023-11-21T08:55:05;44.97;;;20.83;;
45694;SDS011;31408;45.468;9.124;2023-11-21T08:57:36;37.45;;;21.63;;
45694;SDS011;31408;45.468;9.124;2023-11-21T09:00:02;41.70;;;22.45;;
45694;SDS011;31408;45.468;9.124;2023-11-21T09:02:28;41.42;;;22.73;;
45694;SDS011;31408;45.468;9.124;2023-11-21T09:04:53;42.40;;;21.77;;
45694;SDS011;31408;45.468;9.124;2023-11-21T09:07:19;48.67;;;25.05;;
45694;SDS011;31408;45.468;9.124;2023-11-21T09:09:48;45.67;;;22.20;;
45694;SDS011;31408;45.468;9.124;2023-11-21T09:12:14;39.40;;;22.13;;
45694;SDS011;31408;45.468;9.124;2023-11-21T09:14:40;40.05;;;21.23;;
45694;SDS011;31408;45.468;9.124;2023-11-21T09:17:05;43.15;;;23.50;;
45694;SDS011;31408;45.468;9.124;2023-11-21T09:19:39;39.58;;;22.73;;
45694;SDS011;31408;45.468;9.124;2023-11-21T09:22:04;44.58;;;23.23;;
45694;SDS011;31408;45.468;9.124;2023-11-21T09:24:33;41.20;;;23.40;;
45694;SDS011;31408;45.468;9.124;2023-11-21T09:26:58;44.72;;;24.45;;
45694;SDS011;31408;45.468;9.124;2023-11-21T09:29:28;51.28;;;23.50;;
45694;SDS011;31408;45.468;9.124;2023-11-21T09:31:54;36.65;;;19.40;;
45694;SDS011;31408;45.468;9.124;2023-11-21T09:34:20;42.13;;;23.20;;
45694;SDS011;31408;45.468;9.124;2023-11-21T09:36:45;38.33;;;23.00;;
45694;SDS011;31408;45.468;9.124;2023-11-21T09:39:11;38.78;;;22.23;;
45694;SDS011;31408;45.468;9.124;2023-11-21T09:41:43;38.80;;;21.45;;
45694;SDS011;31408;45.468;9.124;2023-11-21T09:44:09;41.63;;;23.63;;
45694;SDS011;31408;45.468;9.124;2023-11-21T09:46:39;51.65;;;25.13;;
45694;SDS011;31408;45.468;9.124;2023-11-21T09:49:05;36.92;;;20.48;;
45694;SDS011;31408;45.468;9.124;2023-11-21T09:51:33;37.25;;;19.77;;
45694;SDS011;31408;45.468;9.124;2023-11-21T09:54:03;32.83;;;18.50;;
45694;SDS011;31408;45.468;9.124;2023-11-21T09:56:34;39.75;;;19.60;;
45694;SDS011;31408;45.468;9.124;2023-11-21T09:59:00;45.70;;;21.27;;
45694;SDS011;31408;45.468;9.124;2023-11-21T10:01:31;42.80;;;23.17;;
45694;SDS011;31408;45.468;9.124;2023-11-21T10:03:57;40.03;;;20.50;;
45694;SDS011;31408;45.468;9.124;2023-11-21T10:06:22;44.97;;;22.42;;
45694;SDS011;31408;45.468;9.124;2023-11-21T10:08:50;43.55;;;21.27;;
45694;SDS011;31408;45.468;9.124;2023-11-21T10:11:16;46.35;;;22.42;;
45694;SDS011;31408;45.468;9.124;2023-11-21T10:13:43;43.35;;;23.30;;
45694;SDS011;31408;45.468;9.124;2023-11-21T10:16:11;40.75;;;24.17;;
45694;SDS011;31408;45.468;9.124;2023-11-21T10:18:39;45.35;;;23.10;;
45694;SDS011;31408;45.468;9.124;2023-11-21T10:21:06;52.00;;;25.83;;
45694;SDS011;31408;45.468;9.124;2023-11-21T10:23:31;45.13;;;21.90;;
45694;SDS011;31408;45.468;9.124;2023-11-21T10:25:57;42.00;;;22.30;;
45694;SDS011;31408;45.468;9.124;2023-11-21T10:28:24;39.88;;;22.20;;
45694;SDS011;31408;45.468;9.124;2023-11-21T10:30:49;39.90;;;22.48;;
45694;SDS011;31408;45.468;9.124;2023-11-21T10:33:15;43.30;;;22.25;;
45694;SDS011;31408;45.468;9.124;2023-11-21T10:35:47;41.58;;;22.13;;
45694;SDS011;31408;45.468;9.124;2023-11-21T10:38:19;41.17;;;21.98;;
45694;SDS011;31408;45.468;9.124;2023-11-21T10:40:47;43.30;;;23.08;;
45694;SDS011;31408;45.468;9.124;2023-11-21T10:43:14;43.03;;;21.83;;
45694;SDS011;31408;45.468;9.124;2023-11-21T10:45:43;37.03;;;21.75;;
45694;SDS011;31408;45.468;9.124;2023-11-21T10:48:09;41.97;;;22.02;;
45694;SDS011;31408;45.468;9.124;2023-11-21T10:50:36;44.00;;;24.75;;
45694;SDS011;31408;45.468;9.124;2023-11-21T10:53:06;39.80;;;22.58;;
45694;SDS011;31408;45.468;9.124;2023-11-21T10:55:33;44.90;;;23.38;;
45694;SDS011;31408;45.468;9.124;2023-11-21T10:57:59;41.80;;;24.67;;
45694;SDS011;31408;45.468;9.124;2023-11-21T11:00:25;46.45;;;24.67;;
45694;SDS011;31408;45.468;9.124;2023-11-21T11:02:52;42.70;;;22.42;;
45694;SDS011;31408;45.468;9.124;2023-11-21T11:05:19;39.72;;;22.60;;
45694;SDS011;31408;45.468;9.124;2023-11-21T11:07:45;48.00;;;25.05;;
45694;SDS011;31408;45.468;9.124;2023-11-21T11:10:13;41.45;;;23.70;;
45694;SDS011;31408;45.468;9.124;2023-11-21T11:12:42;49.35;;;25.23;;
45694;SDS011;31408;45.468;9.124;2023-11-21T11:15:08;41.03;;;23.77;;
45694;SDS011;31408;45.468;9.124;2023-11-21T11:17:36;48.72;;;23.63;;
45694;SDS011;31408;45.468;9.124;2023-11-21T11:20:04;45.80;;;24.52;;
45694;SDS011;31408;45.468;9.124;2023-11-21T11:27:48;41.83;;;22.63;;
45694;SDS011;31408;45.468;9.124;2023-11-21T11:35:51;37.93;;;22.13;;
45694;SDS011;31408;45.468;9.124;2023-11-21T11:38:20;41.17;;;23.80;;
45694;SDS011;31408;45.468;9.124;2023-11-21T11:40:46;42.53;;;21.65;;
45694;SDS011;31408;45.468;9.124;2023-11-21T11:43:12;44.08;;;22.63;;
45694;SDS011;31408;45.468;9.124;2023-11-21T11:45:37;41.28;;;23.73;;
45694;SDS011;31408;45.468;9.124;2023-11-21T11:48:07;45.95;;;20.98;;
45694;SDS011;31408;45.468;9.124;2023-11-21T11:50:32;38.25;;;21.40;;
45694;SDS011;31408;45.468;9.124;2023-11-21T11:53:14;37.03;;;22.25;;
45694;SDS011;31408;45.468;9.124;2023-11-21T11:55:39;41.40;;;21.38;;
45694;SDS011;31408;45.468;9.124;2023-11-21T11:58:05;37.88;;;22.48;;
45694;SDS011;31408;45.468;9.124;2023-11-21T12:00:34;36.35;;;20.20;;
45694;SDS011;31408;45.468;9.124;2023-11-21T12:03:03;39.03;;;20.60;;
45694;SDS011;31408;45.468;9.124;2023-11-21T12:05:29;40.65;;;22.85;;
45694;SDS011;31408;45.468;9.124;2023-11-21T12:07:58;44.40;;;24.05;;
45694;SDS011;31408;45.468;9.124;2023-11-21T12:10:25;43.90;;;22.65;;
45694;SDS011;31408;45.468;9.124;2023-11-21T12:12:51;42.17;;;23.88;;
45694;SDS011;31408;45.468;9.124;2023-11-21T12:15:20;42.58;;;24.23;;
45694;SDS011;31408;45.468;9.124;2023-11-21T12:17:46;45.30;;;25.15;;
45694;SDS011;31408;45.468;9.124;2023-11-21T12:20:12;46.00;;;25.10;;
45694;SDS011;31408;45.468;9.124;2023-11-21T12:22:43;45.42;;;23.80;;
45694;SDS011;31408;45.468;9.124;2023-11-21T12:25:08;39.47;;;23.50;;
45694;SDS011;31408;45.468;9.124;2023-11-21T12:27:34;41.40;;;23.38;;
45694;SDS011;31408;45.468;9.124;2023-11-21T12:30:00;45.25;;;24.33;;
45694;SDS011;31408;45.468;9.124;2023-11-21T12:32:25;41.10;;;22.92;;
45694;SDS011;31408;45.468;9.124;2023-11-21T12:34:51;43.60;;;24.52;;
45694;SDS011;31408;45.468;9.124;2023-11-21T12:37:17;45.92;;;25.92;;
45694;SDS011;31408;45.468;9.124;2023-11-21T12:39:43;48.50;;;25.73;;
45694;SDS011;31408;45.468;9.124;2023-11-21T12:42:08;43.53;;;24.55;;
45694;SDS011;31408;45.468;9.124;2023-11-21T12:44:34;46.88;;;24.85;;
45694;SDS011;31408;45.468;9.124;2023-11-21T12:46:59;39.92;;;22.45;;
45694;SDS011;31408;45.468;9.124;2023-11-21T12:49:24;43.08;;;24.70;;
45694;SDS011;31408;45.468;9.124;2023-11-21T12:51:50;42.78;;;25.20;;
45694;SDS011;31408;45.468;9.124;2023-11-21T12:54:15;42.90;;;25.40;;
45694;SDS011;31408;45.468;9.124;2023-11-21T12:56:44;45.90;;;25.60;;
45694;SDS011;31408;45.468;9.124;2023-11-21T12:59:12;44.22;;;25.08;;
45694;SDS011;31408;45.468;9.124;2023-11-21T13:01:41;48.30;;;25.20;;
45694;SDS011;31408;45.468;9.124;2023-11-21T13:04:07;46.85;;;24.48;;
45694;SDS011;31408;45.468;9.124;2023-11-21T13:06:33;45.00;;;24.42;;
45694;SDS011;31408;45.468;9.124;2023-11-21T13:09:03;53.45;;;26.60;;
45694;SDS011;31408;45.468;9.124;2023-11-21T13:11:30;42.08;;;24.42;;
45694;SDS011;31408;45.468;9.124;2023-11-21T13:13:59;47.65;;;26.85;;
45694;SDS011;31408;45.468;9.124;2023-11-21T13:16:25;47.38;;;26.20;;
45694;SDS011;31408;45.468;9.124;2023-11-21T13:18:51;45.28;;;25.45;;
45694;SDS011;31408;45.468;9.124;2023-11-21T13:21:16;46.70;;;24.92;;
45694;SDS011;31408;45.468;9.124;2023-11-21T13:23:44;45.67;;;25.00;;
45694;SDS011;31408;45.468;9.124;2023-11-21T13:26:11;48.60;;;24.55;;
45694;SDS011;31408;45.468;9.124;2023-11-21T13:28:37;42.97;;;25.20;;
45694;SDS011;31408;45.468;9.124;2023-11-21T13:31:03;43.67;;;24.65;;
45694;SDS011;31408;45.468;9.124;2023-11-21T13:33:45;48.33;;;26.58;;
45694;SDS011;31408;45.468;9.124;2023-11-21T13:36:15;41.92;;;24.58;;
45694;SDS011;31408;45.468;9.124;2023-11-21T13:38:48;43.60;;;26.13;;
45694;SDS011;31408;45.468;9.124;2023-11-21T13:41:13;46.90;;;25.67;;
45694;SDS011;31408;45.468;9.124;2023-11-21T13:43:44;44.80;;;25.80;;
45694;SDS011;31408;45.468;9.124;2023-11-21T13:46:24;45.53;;;26.38;;
45694;SDS011;31408;45.468;9.124;2023-11-21T13:48:49;49.33;;;24.63;;
45694;SDS011;31408;45.468;9.124;2023-11-21T13:51:21;46.92;;;25.17;;
45694;SDS011;31408;45.468;9.124;2023-11-21T13:53:54;48.13;;;25.45;;
45694;SDS011;31408;45.468;9.124;2023-11-21T13:56:20;44.45;;;24.20;;
45694;SDS011;31408;45.468;9.124;2023-11-21T13:58:52;44.25;;;24.05;;
45694;SDS011;31408;45.468;9.124;2023-11-21T14:01:18;40.28;;;22.90;;
45694;SDS011;31408;45.468;9.124;2023-11-21T14:03:56;47.00;;;25.08;;
45694;SDS011;31408;45.468;9.124;2023-11-21T14:06:39;44.20;;;24.48;;
45694;SDS011;31408;45.468;9.124;2023-11-21T14:09:13;44.75;;;23.55;;
45694;SDS011;31408;45.468;9.124;2023-11-21T14:11:48;48.90;;;24.55;;
45694;SDS011;31408;45.468;9.124;2023-11-21T14:14:14;52.25;;;25.65;;
45694;SDS011;31408;45.468;9.124;2023-11-21T14:16:39;48.85;;;28.73;;
45694;SDS011;31408;45.468;9.124;2023-11-21T14:19:04;45.85;;;25.13;;
45694;SDS011;31408;45.468;9.124;2023-11-21T14:21:40;47.83;;;25.95;;
45694;SDS011;31408;45.468;9.124;2023-11-21T14:24:08;46.65;;;27.10;;
45694;SDS011;31408;45.468;9.124;2023-11-21T14:26:34;50.05;;;26.73;;
45694;SDS011;31408;45.468;9.124;2023-11-21T14:29:00;48.08;;;24.17;;